sensor_id;sensor_type;location;lat;lon;timestamp;pressure;altitude;pressure_sealevel;temperature;humidity
54592;BME280;40488;48.558;18.150;2023-02-21T00:01:57;99474.16;;;7.53;74.43
54592;BME280;40488;48.558;18.150;2023-02-21T00:04:36;99481.84;;;7.62;74.89
54592;BME280;40488;48.558;18.150;2023-02-21T00:07:14;99475.94;;;7.65;74.39
54592;BME280;40488;48.558;18.150;2023-02-21T00:09:53;99479.31;;;7.62;74.22
54592;BME280;40488;48.558;18.150;2023-02-21T00:12:32;99465.75;;;7.62;74.35
54592;BME280;40488;48.558;18.150;2023-02-21T00:15:13;99462.34;;;7.61;73.74
54592;BME280;40488;48.558;18.150;2023-02-21T00:17:52;99469.97;;;7.60;73.89
54592;BME280;40488;48.558;18.150;2023-02-21T00:20:31;99475.91;;;7.60;74.24
54592;BME280;40488;48.558;18.150;2023-02-21T00:23:10;99474.19;;;7.59;73.78
54592;BME280;40488;48.558;18.150;2023-02-21T00:25:48;99464.78;;;7.48;73.45
54592;BME280;40488;48.558;18.150;2023-02-21T00:28:27;99462.16;;;7.34;74.64
54592;BME280;40488;48.558;18.150;2023-02-21T00:31:07;99474.00;;;7.35;74.39
54592;BME280;40488;48.558;18.150;2023-02-21T00:33:45;99474.00;;;7.35;74.40
54592;BME280;40488;48.558;18.150;2023-02-21T00:36:22;99473.94;;;7.32;74.60
54592;BME280;40488;48.558;18.150;2023-02-21T00:39:01;99486.66;;;7.32;74.03
54592;BME280;40488;48.558;18.150;2023-02-21T00:41:40;99473.09;;;7.28;74.30
54592;BME280;40488;48.558;18.150;2023-02-21T00:44:19;99468.84;;;7.26;74.80
54592;BME280;40488;48.558;18.150;2023-02-21T00:47:00;99488.25;;;7.22;74.12
54592;BME280;40488;48.558;18.150;2023-02-21T00:49:39;99473.09;;;7.27;74.27
54592;BME280;40488;48.558;18.150;2023-02-21T00:52:17;99464.56;;;7.22;74.17
54592;BME280;40488;48.558;18.150;2023-02-21T00:54:56;99471.31;;;7.17;74.53
54592;BME280;40488;48.558;18.150;2023-02-21T00:57:34;99485.59;;;7.09;74.82
54592;BME280;40488;48.558;18.150;2023-02-21T01:00:15;99479.53;;;6.95;74.81
54592;BME280;40488;48.558;18.150;2023-02-21T01:02:56;99480.28;;;6.88;75.04
54592;BME280;40488;48.558;18.150;2023-02-21T01:05:34;99470.84;;;6.71;75.45
54592;BME280;40488;48.558;18.150;2023-02-21T01:08:13;99474.91;;;6.57;75.80
54592;BME280;40488;48.558;18.150;2023-02-21T01:10:52;99479.06;;;6.52;75.92
54592;BME280;40488;48.558;18.150;2023-02-21T01:13:30;99483.22;;;6.50;76.38
54592;BME280;40488;48.558;18.150;2023-02-21T01:16:09;99483.94;;;6.39;76.31
54592;BME280;40488;48.558;18.150;2023-02-21T01:18:49;99485.72;;;6.46;76.85
54592;BME280;40488;48.558;18.150;2023-02-21T01:21:30;99487.59;;;6.60;76.62
54592;BME280;40488;48.558;18.150;2023-02-21T01:24:11;99476.66;;;6.64;77.16
54592;BME280;40488;48.558;18.150;2023-02-21T01:26:50;99486.09;;;6.76;76.45
54592;BME280;40488;48.558;18.150;2023-02-21T01:29:29;99488.59;;;6.71;76.99
54592;BME280;40488;48.558;18.150;2023-02-21T01:32:07;99479.31;;;6.73;76.44
54592;BME280;40488;48.558;18.150;2023-02-21T01:34:47;99471.66;;;6.70;76.75
54592;BME280;40488;48.558;18.150;2023-02-21T01:37:26;99466.53;;;6.67;76.58
54592;BME280;40488;48.558;18.150;2023-02-21T01:40:05;99460.50;;;6.58;76.92
54592;BME280;40488;48.558;18.150;2023-02-21T01:42:45;99457.16;;;6.57;76.64
54592;BME280;40488;48.558;18.150;2023-02-21T01:45:42;99461.31;;;6.55;76.83
54592;BME280;40488;48.558;18.150;2023-02-21T01:48:25;99451.28;;;6.61;76.73
54592;BME280;40488;48.558;18.150;2023-02-21T01:51:08;99438.50;;;6.54;76.87
54592;BME280;40488;48.558;18.150;2023-02-21T01:53:48;99438.50;;;6.54;76.98
54592;BME280;40488;48.558;18.150;2023-02-21T01:56:29;99439.50;;;6.69;77.18
54592;BME280;40488;48.558;18.150;2023-02-21T01:59:09;99439.47;;;6.63;76.91
54592;BME280;40488;48.558;18.150;2023-02-21T02:01:51;99431.94;;;6.71;76.85
54592;BME280;40488;48.558;18.150;2023-02-21T02:04:32;99433.81;;;6.90;77.11
54592;BME280;40488;48.558;18.150;2023-02-21T02:07:12;99439.78;;;6.97;76.24
54592;BME280;40488;48.558;18.150;2023-02-21T02:09:51;99432.19;;;6.98;76.03
54592;BME280;40488;48.558;18.150;2023-02-21T02:12:50;99431.47;;;7.10;75.53
54592;BME280;40488;48.558;18.150;2023-02-21T02:15:28;99426.38;;;7.07;75.25
54592;BME280;40488;48.558;18.150;2023-02-21T02:21:30;99415.53;;;7.24;74.84
54592;BME280;40488;48.558;18.150;2023-02-21T02:33:05;99424.94;;;7.36;74.48
54592;BME280;40488;48.558;18.150;2023-02-21T02:35:43;99439.25;;;7.28;74.70
54592;BME280;40488;48.558;18.150;2023-02-21T02:38:20;99429.88;;;7.21;74.32
54592;BME280;40488;48.558;18.150;2023-02-21T02:40:58;99439.13;;;7.14;74.48
54592;BME280;40488;48.558;18.150;2023-02-21T02:43:31;99450.03;;;7.03;74.72
54592;BME280;40488;48.558;18.150;2023-02-21T02:46:05;99445.69;;;6.94;74.96
54592;BME280;40488;48.558;18.150;2023-02-21T02:48:39;99438.91;;;6.92;75.50
54592;BME280;40488;48.558;18.150;2023-02-21T02:51:14;99460.03;;;6.91;75.68
54592;BME280;40488;48.558;18.150;2023-02-21T02:53:47;99452.41;;;6.89;75.83
54592;BME280;40488;48.558;18.150;2023-02-21T02:56:17;99449.91;;;6.94;75.90
54592;BME280;40488;48.558;18.150;2023-02-21T02:58:48;99444.78;;;6.88;75.55
54592;BME280;40488;48.558;18.150;2023-02-21T03:07:11;99446.59;;;7.01;76.21
54592;BME280;40488;48.558;18.150;2023-02-21T03:09:52;99449.09;;;6.95;75.88
54592;BME280;40488;48.558;18.150;2023-02-21T03:12:32;99448.25;;;6.96;76.71
54592;BME280;40488;48.558;18.150;2023-02-21T03:15:07;99448.31;;;7.02;76.45
54592;BME280;40488;48.558;18.150;2023-02-21T03:17:43;99438.97;;;6.98;76.18
54592;BME280;40488;48.558;18.150;2023-02-21T03:20:16;99439.72;;;6.88;76.28
54592;BME280;40488;48.558;18.150;2023-02-21T03:22:48;99438.84;;;6.86;76.78
54592;BME280;40488;48.558;18.150;2023-02-21T03:25:20;99429.84;;;7.18;76.74
54592;BME280;40488;48.558;18.150;2023-02-21T03:27:54;99433.50;;;7.50;76.37
54592;BME280;40488;48.558;18.150;2023-02-21T03:30:27;99443.78;;;7.65;75.97
54592;BME280;40488;48.558;18.150;2023-02-21T03:32:58;99431.06;;;7.65;75.47
54592;BME280;40488;48.558;18.150;2023-02-21T03:35:28;99426.78;;;7.61;75.25
54592;BME280;40488;48.558;18.150;2023-02-21T03:37:59;99421.78;;;7.67;74.79
54592;BME280;40488;48.558;18.150;2023-02-21T03:40:30;99422.69;;;7.78;74.82
54592;BME280;40488;48.558;18.150;2023-02-21T03:43:03;99416.75;;;7.76;74.06
54592;BME280;40488;48.558;18.150;2023-02-21T03:45:47;99422.56;;;7.60;74.65
54592;BME280;40488;48.558;18.150;2023-02-21T03:48:18;99431.84;;;7.55;74.45
54592;BME280;40488;48.558;18.150;2023-02-21T03:51:12;99435.22;;;7.54;74.51
54592;BME280;40488;48.558;18.150;2023-02-21T03:53:43;99434.22;;;7.34;75.16
54592;BME280;40488;48.558;18.150;2023-02-21T03:56:13;99434.88;;;7.12;74.48
54592;BME280;40488;48.558;18.150;2023-02-21T03:58:53;99435.59;;;6.96;75.77
54592;BME280;40488;48.558;18.150;2023-02-21T04:01:22;99443.16;;;6.93;75.92
54592;BME280;40488;48.558;18.150;2023-02-21T04:03:53;99418.53;;;6.84;76.24
54592;BME280;40488;48.558;18.150;2023-02-21T04:06:22;99432.88;;;6.81;76.44
54592;BME280;40488;48.558;18.150;2023-02-21T04:08:53;99439.75;;;6.91;77.42
54592;BME280;40488;48.558;18.150;2023-02-21T04:11:24;99431.44;;;7.08;76.25
54592;BME280;40488;48.558;18.150;2023-02-21T04:13:53;99424.75;;;7.18;76.57
54592;BME280;40488;48.558;18.150;2023-02-21T04:16:23;99425.03;;;7.48;76.26
54592;BME280;40488;48.558;18.150;2023-02-21T04:18:53;99430.13;;;7.54;76.34
54592;BME280;40488;48.558;18.150;2023-02-21T04:21:25;99431.00;;;7.56;75.53
54592;BME280;40488;48.558;18.150;2023-02-21T04:23:57;99440.25;;;7.51;76.24
54592;BME280;40488;48.558;18.150;2023-02-21T04:26:30;99427.56;;;7.50;75.81
54592;BME280;40488;48.558;18.150;2023-02-21T04:29:02;99430.94;;;7.46;76.19
54592;BME280;40488;48.558;18.150;2023-02-21T04:31:33;99436.06;;;7.55;75.71
54592;BME280;40488;48.558;18.150;2023-02-21T04:34:07;99436.25;;;7.83;75.54
54592;BME280;40488;48.558;18.150;2023-02-21T04:36:42;99435.50;;;7.96;74.81
54592;BME280;40488;48.558;18.150;2023-02-21T04:39:12;99440.59;;;8.02;75.12
54592;BME280;40488;48.558;18.150;2023-02-21T04:41:41;99437.19;;;7.97;74.06
54592;BME280;40488;48.558;18.150;2023-02-21T04:44:11;99432.91;;;7.90;75.43
54592;BME280;40488;48.558;18.150;2023-02-21T04:46:40;99426.06;;;7.79;74.62
54592;BME280;40488;48.558;18.150;2023-02-21T04:49:09;99422.66;;;7.75;75.37
54592;BME280;40488;48.558;18.150;2023-02-21T04:51:40;99397.22;;;7.68;74.76
54592;BME280;40488;48.558;18.150;2023-02-21T04:54:08;99416.75;;;7.82;75.76
54592;BME280;40488;48.558;18.150;2023-02-21T04:56:41;99412.63;;;7.93;74.94
54592;BME280;40488;48.558;18.150;2023-02-21T04:59:10;99412.63;;;7.99;74.13
54592;BME280;40488;48.558;18.150;2023-02-21T05:01:39;99413.50;;;8.04;74.93
54592;BME280;40488;48.558;18.150;2023-02-21T05:04:08;99413.50;;;8.04;74.59
54592;BME280;40488;48.558;18.150;2023-02-21T05:06:36;99410.09;;;7.99;74.56
54592;BME280;40488;48.558;18.150;2023-02-21T05:09:05;99402.47;;;7.98;75.03
54592;BME280;40488;48.558;18.150;2023-02-21T05:11:34;99403.31;;;7.98;74.80
54592;BME280;40488;48.558;18.150;2023-02-21T05:14:05;99405.00;;;7.95;74.43
54592;BME280;40488;48.558;18.150;2023-02-21T05:16:34;99407.50;;;7.84;75.05
54592;BME280;40488;48.558;18.150;2023-02-21T05:19:03;99407.41;;;7.75;74.32
54592;BME280;40488;48.558;18.150;2023-02-21T05:21:33;99404.78;;;7.63;75.08
54592;BME280;40488;48.558;18.150;2023-02-21T05:24:05;99409.75;;;7.45;75.17
54592;BME280;40488;48.558;18.150;2023-02-21T05:26:35;99399.69;;;7.56;75.90
54592;BME280;40488;48.558;18.150;2023-02-21T05:29:05;99394.63;;;7.57;75.00
54592;BME280;40488;48.558;18.150;2023-02-21T05:31:34;99397.91;;;7.44;75.64
54592;BME280;40488;48.558;18.150;2023-02-21T05:34:02;99404.50;;;7.21;76.22
54592;BME280;40488;48.558;18.150;2023-02-21T05:36:31;99420.41;;;7.03;75.51
54592;BME280;40488;48.558;18.150;2023-02-21T05:39:00;99413.50;;;6.86;76.07
54592;BME280;40488;48.558;18.150;2023-02-21T05:41:29;99423.63;;;6.87;76.64
54592;BME280;40488;48.558;18.150;2023-02-21T05:43:58;99419.41;;;6.88;77.03
54592;BME280;40488;48.558;18.150;2023-02-21T05:46:30;99412.72;;;6.93;77.21
54592;BME280;40488;48.558;18.150;2023-02-21T05:49:00;99426.38;;;7.07;77.24
54592;BME280;40488;48.558;18.150;2023-02-21T05:51:33;99425.56;;;7.11;77.44
54592;BME280;40488;48.558;18.150;2023-02-21T05:54:02;99423.03;;;7.14;77.29
54592;BME280;40488;48.558;18.150;2023-02-21T05:56:36;99432.41;;;7.21;77.36
54592;BME280;40488;48.558;18.150;2023-02-21T05:59:06;99432.50;;;7.31;77.77
54592;BME280;40488;48.558;18.150;2023-02-21T06:01:36;99436.84;;;7.43;77.86
54592;BME280;40488;48.558;18.150;2023-02-21T06:04:06;99440.25;;;7.51;76.93
54592;BME280;40488;48.558;18.150;2023-02-21T06:06:35;99437.00;;;7.67;76.67
54592;BME280;40488;48.558;18.150;2023-02-21T06:09:05;99440.44;;;7.75;76.63
54592;BME280;40488;48.558;18.150;2023-02-21T06:11:36;99439.56;;;7.72;76.36
54592;BME280;40488;48.558;18.150;2023-02-21T06:14:06;99447.25;;;7.79;76.26
54592;BME280;40488;48.558;18.150;2023-02-21T06:16:37;99447.25;;;7.82;76.27
54592;BME280;40488;48.558;18.150;2023-02-21T06:19:08;99455.72;;;7.81;75.76
54592;BME280;40488;48.558;18.150;2023-02-21T06:21:37;99468.41;;;7.78;76.30
54592;BME280;40488;48.558;18.150;2023-02-21T06:24:06;99464.16;;;7.74;76.44
54592;BME280;40488;48.558;18.150;2023-02-21T06:26:36;99466.63;;;7.68;76.21
54592;BME280;40488;48.558;18.150;2023-02-21T06:29:05;99465.75;;;7.60;76.97
54592;BME280;40488;48.558;18.150;2023-02-21T06:31:33;99482.66;;;7.58;77.17
54592;BME280;40488;48.558;18.150;2023-02-21T06:34:04;99475.09;;;7.63;77.45
54592;BME280;40488;48.558;18.150;2023-02-21T06:36:33;99472.56;;;7.67;77.66
54592;BME280;40488;48.558;18.150;2023-02-21T06:39:05;99486.13;;;7.69;77.65
54592;BME280;40488;48.558;18.150;2023-02-21T06:41:34;99480.19;;;7.70;78.32
54592;BME280;40488;48.558;18.150;2023-02-21T06:44:03;99476.81;;;7.70;78.23
54592;BME280;40488;48.558;18.150;2023-02-21T06:46:32;99472.59;;;7.73;78.13
54592;BME280;40488;48.558;18.150;2023-02-21T06:49:04;99481.22;;;7.93;78.07
54592;BME280;40488;48.558;18.150;2023-02-21T06:51:33;99470.28;;;8.09;77.29
54592;BME280;40488;48.558;18.150;2023-02-21T06:54:03;99472.00;;;8.13;77.12
54592;BME280;40488;48.558;18.150;2023-02-21T06:56:34;99462.69;;;8.13;76.58
54592;BME280;40488;48.558;18.150;2023-02-21T06:59:03;99456.75;;;8.13;77.48
54592;BME280;40488;48.558;18.150;2023-02-21T07:01:32;99468.63;;;8.15;77.21
54592;BME280;40488;48.558;18.150;2023-02-21T07:04:01;99455.94;;;8.15;77.48
54592;BME280;40488;48.558;18.150;2023-02-21T07:06:31;99461.03;;;8.18;77.33
54592;BME280;40488;48.558;18.150;2023-02-21T07:09:00;99462.72;;;8.19;77.87
54592;BME280;40488;48.558;18.150;2023-02-21T07:11:30;99469.50;;;8.17;77.52
54592;BME280;40488;48.558;18.150;2023-02-21T07:13:59;99476.28;;;8.21;77.48
54592;BME280;40488;48.558;18.150;2023-02-21T07:16:28;99464.50;;;8.29;77.42
54592;BME280;40488;48.558;18.150;2023-02-21T07:18:57;99476.44;;;8.42;77.33
54592;BME280;40488;48.558;18.150;2023-02-21T07:21:26;99473.97;;;8.64;77.61
54592;BME280;40488;48.558;18.150;2023-02-21T07:23:56;99473.19;;;8.88;77.63
54592;BME280;40488;48.558;18.150;2023-02-21T07:26:25;99464.78;;;9.13;76.56
54592;BME280;40488;48.558;18.150;2023-02-21T07:28:54;99473.25;;;9.33;76.99
54592;BME280;40488;48.558;18.150;2023-02-21T07:31:23;99477.53;;;9.54;76.05
54592;BME280;40488;48.558;18.150;2023-02-21T07:33:52;99486.03;;;9.73;75.48
54592;BME280;40488;48.558;18.150;2023-02-21T07:36:21;99486.84;;;9.90;74.62
54592;BME280;40488;48.558;18.150;2023-02-21T07:38:53;99487.69;;;10.10;74.52
54592;BME280;40488;48.558;18.150;2023-02-21T07:41:23;99476.63;;;10.26;73.81
54592;BME280;40488;48.558;18.150;2023-02-21T07:43:52;99482.53;;;10.39;73.36
54592;BME280;40488;48.558;18.150;2023-02-21T07:46:25;99481.63;;;10.53;72.98
54592;BME280;40488;48.558;18.150;2023-02-21T07:48:55;99473.06;;;10.63;72.28
54592;BME280;40488;48.558;18.150;2023-02-21T07:51:26;99460.25;;;10.75;71.74
54592;BME280;40488;48.558;18.150;2023-02-21T07:53:56;99464.47;;;10.86;71.61
54592;BME280;40488;48.558;18.150;2023-02-21T07:56:26;99472.88;;;11.00;70.85
54592;BME280;40488;48.558;18.150;2023-02-21T07:58:55;99462.66;;;11.06;70.48
54592;BME280;40488;48.558;18.150;2023-02-21T08:01:24;99464.34;;;11.04;70.36
54592;BME280;40488;48.558;18.150;2023-02-21T08:03:53;99467.78;;;11.03;70.44
54592;BME280;40488;48.558;18.150;2023-02-21T08:06:22;99455.75;;;11.20;69.79
54592;BME280;40488;48.558;18.150;2023-02-21T08:08:50;99461.56;;;11.38;69.91
54592;BME280;40488;48.558;18.150;2023-02-21T08:11:19;99465.72;;;11.53;69.58
54592;BME280;40488;48.558;18.150;2023-02-21T08:13:49;99466.59;;;11.49;68.88
54592;BME280;40488;48.558;18.150;2023-02-21T08:16:19;99460.59;;;11.53;68.48
54592;BME280;40488;48.558;18.150;2023-02-21T08:18:48;99465.56;;;11.71;68.45
54592;BME280;40488;48.558;18.150;2023-02-21T08:21:17;99460.34;;;11.83;68.16
54592;BME280;40488;48.558;18.150;2023-02-21T08:23:46;99465.44;;;11.86;68.08
54592;BME280;40488;48.558;18.150;2023-02-21T08:26:15;99467.16;;;11.87;67.46
54592;BME280;40488;48.558;18.150;2023-02-21T08:28:44;99464.59;;;11.87;67.81
54592;BME280;40488;48.558;18.150;2023-02-21T08:31:14;99473.03;;;11.94;67.82
54592;BME280;40488;48.558;18.150;2023-02-21T08:33:43;99465.31;;;12.01;67.35
54592;BME280;40488;48.558;18.150;2023-02-21T08:36:12;99458.44;;;12.06;67.39
54592;BME280;40488;48.558;18.150;2023-02-21T08:38:41;99457.56;;;12.09;66.99
54592;BME280;40488;48.558;18.150;2023-02-21T08:41:10;99451.56;;;12.12;67.22
54592;BME280;40488;48.558;18.150;2023-02-21T08:43:40;99444.72;;;12.10;67.27
54592;BME280;40488;48.558;18.150;2023-02-21T08:46:08;99450.63;;;12.19;66.89
54592;BME280;40488;48.558;18.150;2023-02-21T08:48:39;99445.53;;;12.16;66.95
54592;BME280;40488;48.558;18.150;2023-02-21T08:51:09;99442.84;;;12.28;67.19
54592;BME280;40488;48.558;18.150;2023-02-21T08:53:38;99450.41;;;12.37;66.91
54592;BME280;40488;48.558;18.150;2023-02-21T08:56:07;99446.25;;;12.27;66.48
54592;BME280;40488;48.558;18.150;2023-02-21T08:58:37;99440.34;;;12.22;66.79
54592;BME280;40488;48.558;18.150;2023-02-21T09:01:06;99456.56;;;12.21;66.51
54592;BME280;40488;48.558;18.150;2023-02-21T09:03:35;99455.66;;;12.25;66.68
54592;BME280;40488;48.558;18.150;2023-02-21T09:06:06;99456.44;;;12.33;66.04
54592;BME280;40488;48.558;18.150;2023-02-21T09:08:35;99461.56;;;12.33;66.07
54592;BME280;40488;48.558;18.150;2023-02-21T09:11:04;99462.31;;;12.39;66.11
54592;BME280;40488;48.558;18.150;2023-02-21T09:13:33;99470.84;;;12.38;66.16
54592;BME280;40488;48.558;18.150;2023-02-21T09:16:03;99470.81;;;12.41;65.96
54592;BME280;40488;48.558;18.150;2023-02-21T09:18:32;99485.22;;;12.51;65.98
54592;BME280;40488;48.558;18.150;2023-02-21T09:21:01;99474.72;;;12.74;66.42
54592;BME280;40488;48.558;18.150;2023-02-21T09:23:31;99476.19;;;12.90;65.68
54592;BME280;40488;48.558;18.150;2023-02-21T09:26:00;99460.78;;;12.93;65.22
54592;BME280;40488;48.558;18.150;2023-02-21T09:28:29;99459.84;;;12.99;65.09
54592;BME280;40488;48.558;18.150;2023-02-21T09:30:58;99462.38;;;13.02;64.62
54592;BME280;40488;48.558;18.150;2023-02-21T09:33:27;99468.97;;;13.19;65.03
54592;BME280;40488;48.558;18.150;2023-02-21T09:35:57;99463.72;;;13.28;64.21
54592;BME280;40488;48.558;18.150;2023-02-21T09:38:26;99460.34;;;13.26;63.99
54592;BME280;40488;48.558;18.150;2023-02-21T09:40:59;99453.47;;;13.28;63.72
54592;BME280;40488;48.558;18.150;2023-02-21T09:43:32;99465.19;;;13.41;63.89
54592;BME280;40488;48.558;18.150;2023-02-21T09:46:05;99465.91;;;13.53;63.50
54592;BME280;40488;48.558;18.150;2023-02-21T09:48:38;99457.94;;;13.68;63.41
54592;BME280;40488;48.558;18.150;2023-02-21T09:51:09;99467.50;;;13.60;63.08
54592;BME280;40488;48.558;18.150;2023-02-21T09:53:42;99467.38;;;13.67;63.22
54592;BME280;40488;48.558;18.150;2023-02-21T09:56:20;99473.19;;;13.77;62.89
54592;BME280;40488;48.558;18.150;2023-02-21T09:58:49;99466.94;;;13.91;62.34
54592;BME280;40488;48.558;18.150;2023-02-21T10:01:24;99471.88;;;14.03;62.17
54592;BME280;40488;48.558;18.150;2023-02-21T10:04:09;99460.84;;;13.97;61.88
54592;BME280;40488;48.558;18.150;2023-02-21T10:06:47;99476.19;;;14.00;61.48
54592;BME280;40488;48.558;18.150;2023-02-21T10:09:25;99476.06;;;14.06;61.49
54592;BME280;40488;48.558;18.150;2023-02-21T10:12:07;99481.19;;;14.06;61.80
54592;BME280;40488;48.558;18.150;2023-02-21T10:17:33;99467.94;;;14.32;61.51
54592;BME280;40488;48.558;18.150;2023-02-21T10:20:10;99470.94;;;14.53;61.85
54592;BME280;40488;48.558;18.150;2023-02-21T10:22:43;99465.78;;;14.53;61.29
54592;BME280;40488;48.558;18.150;2023-02-21T10:25:22;99464.03;;;14.55;61.14
54592;BME280;40488;48.558;18.150;2023-02-21T10:27:53;99449.88;;;14.76;60.94
54592;BME280;40488;48.558;18.150;2023-02-21T10:30:31;99457.63;;;14.74;60.53
54592;BME280;40488;48.558;18.150;2023-02-21T10:33:02;99449.13;;;14.72;60.33
54592;BME280;40488;48.558;18.150;2023-02-21T10:35:37;99462.72;;;14.76;60.25
54592;BME280;40488;48.558;18.150;2023-02-21T10:38:08;99454.91;;;14.82;60.17
54592;BME280;40488;48.558;18.150;2023-02-21T10:40:40;99454.75;;;14.88;60.00
54592;BME280;40488;48.558;18.150;2023-02-21T10:43:15;99456.84;;;14.72;59.60
54592;BME280;40488;48.558;18.150;2023-02-21T10:45:50;99450.47;;;14.89;59.82
54592;BME280;40488;48.558;18.150;2023-02-21T10:48:24;99453.84;;;14.91;59.97
54592;BME280;40488;48.558;18.150;2023-02-21T10:51:06;99451.97;;;14.99;60.05
54592;BME280;40488;48.558;18.150;2023-02-21T10:53:37;99468.41;;;14.92;59.73
54592;BME280;40488;48.558;18.150;2023-02-21T10:56:23;99461.97;;;15.11;59.69
54592;BME280;40488;48.558;18.150;2023-02-21T10:58:56;99457.88;;;15.02;60.00
54592;BME280;40488;48.558;18.150;2023-02-21T11:01:34;99459.25;;;14.78;59.97
54592;BME280;40488;48.558;18.150;2023-02-21T11:04:05;99461.28;;;14.64;60.23
54592;BME280;40488;48.558;18.150;2023-02-21T11:06:36;99463.53;;;14.38;60.31
54592;BME280;40488;48.558;18.150;2023-02-21T11:09:23;99460.28;;;14.27;60.62
54592;BME280;40488;48.558;18.150;2023-02-21T11:12:00;99465.72;;;14.12;60.43
54592;BME280;40488;48.558;18.150;2023-02-21T11:14:32;99459.78;;;14.08;60.59
54592;BME280;40488;48.558;18.150;2023-02-21T11:17:20;99460.63;;;14.09;61.38
54592;BME280;40488;48.558;18.150;2023-02-21T11:19:51;99461.75;;;13.96;61.12
54592;BME280;40488;48.558;18.150;2023-02-21T11:22:23;99460.78;;;14.00;61.54
54592;BME280;40488;48.558;18.150;2023-02-21T11:24:58;99451.09;;;14.16;61.86
54592;BME280;40488;48.558;18.150;2023-02-21T11:27:30;99455.00;;;14.36;61.47
54592;BME280;40488;48.558;18.150;2023-02-21T11:30:15;99451.00;;;14.64;60.67
54592;BME280;40488;48.558;18.150;2023-02-21T11:32:49;99446.50;;;14.74;60.12
54592;BME280;40488;48.558;18.150;2023-02-21T11:35:23;99435.75;;;14.95;59.98
54592;BME280;40488;48.558;18.150;2023-02-21T11:37:55;99446.78;;;15.02;59.77
54592;BME280;40488;48.558;18.150;2023-02-21T11:40:32;99444.47;;;14.90;59.50
54592;BME280;40488;48.558;18.150;2023-02-21T11:43:17;99440.31;;;14.84;59.32
54592;BME280;40488;48.558;18.150;2023-02-21T11:45:59;99436.13;;;14.80;59.61
54592;BME280;40488;48.558;18.150;2023-02-21T11:48:33;99440.97;;;14.52;59.45
54592;BME280;40488;48.558;18.150;2023-02-21T11:51:15;99439.59;;;14.36;59.89
54592;BME280;40488;48.558;18.150;2023-02-21T11:53:45;99438.19;;;14.20;60.09
54592;BME280;40488;48.558;18.150;2023-02-21T11:56:23;99434.19;;;14.05;60.89
54592;BME280;40488;48.558;18.150;2023-02-21T11:59:02;99426.69;;;13.95;61.47
54592;BME280;40488;48.558;18.150;2023-02-21T12:01:38;99427.38;;;14.03;61.29
54592;BME280;40488;48.558;18.150;2023-02-21T12:04:18;99423.56;;;14.24;61.12
54592;BME280;40488;48.558;18.150;2023-02-21T12:06:56;99422.31;;;14.44;61.08
54592;BME280;40488;48.558;18.150;2023-02-21T12:09:37;99422.38;;;14.41;60.90
54592;BME280;40488;48.558;18.150;2023-02-21T12:12:21;99414.69;;;14.40;60.85
54592;BME280;40488;48.558;18.150;2023-02-21T12:15:01;99406.34;;;14.30;60.86
54592;BME280;40488;48.558;18.150;2023-02-21T12:17:48;99415.94;;;14.19;61.88
54592;BME280;40488;48.558;18.150;2023-02-21T12:20:36;99408.19;;;14.21;61.60
54592;BME280;40488;48.558;18.150;2023-02-21T12:23:15;99412.31;;;14.32;61.75
54592;BME280;40488;48.558;18.150;2023-02-21T12:25:55;99409.44;;;14.46;61.88
54592;BME280;40488;48.558;18.150;2023-02-21T12:28:35;99417.81;;;14.55;61.12
54592;BME280;40488;48.558;18.150;2023-02-21T12:31:22;99401.91;;;14.38;61.58
54592;BME280;40488;48.558;18.150;2023-02-21T12:34:04;99398.56;;;14.33;61.10
54592;BME280;40488;48.558;18.150;2023-02-21T12:39:40;99407.53;;;14.11;61.77
54592;BME280;40488;48.558;18.150;2023-02-21T12:42:24;99399.06;;;14.06;61.49
54592;BME280;40488;48.558;18.150;2023-02-21T12:45:06;99380.25;;;14.07;61.56
54592;BME280;40488;48.558;18.150;2023-02-21T12:47:48;99385.38;;;14.07;61.67
54592;BME280;40488;48.558;18.150;2023-02-21T12:50:22;99382.84;;;14.05;61.86
54592;BME280;40488;48.558;18.150;2023-02-21T12:52:57;99382.78;;;14.08;61.94
54592;BME280;40488;48.558;18.150;2023-02-21T12:55:32;99381.25;;;14.00;61.90
54592;BME280;40488;48.558;18.150;2023-02-21T12:58:09;99377.22;;;13.87;61.61
54592;BME280;40488;48.558;18.150;2023-02-21T13:00:41;99378.19;;;13.81;61.64
54592;BME280;40488;48.558;18.150;2023-02-21T13:03:30;99379.09;;;13.79;61.94
54592;BME280;40488;48.558;18.150;2023-02-21T13:06:07;99370.41;;;13.86;62.23
54592;BME280;40488;48.558;18.150;2023-02-21T13:08:46;99384.00;;;13.91;62.35
54592;BME280;40488;48.558;18.150;2023-02-21T13:11:23;99380.53;;;13.92;62.71
54592;BME280;40488;48.558;18.150;2023-02-21T13:13:55;99387.44;;;13.90;62.02
54592;BME280;40488;48.558;18.150;2023-02-21T13:16:26;99378.97;;;13.85;62.14
54592;BME280;40488;48.558;18.150;2023-02-21T13:18:59;99379.94;;;13.78;62.33
54592;BME280;40488;48.558;18.150;2023-02-21T13:21:45;99392.00;;;13.73;62.21
54592;BME280;40488;48.558;18.150;2023-02-21T13:30:00;99395.66;;;13.63;62.94
54592;BME280;40488;48.558;18.150;2023-02-21T13:32:36;99396.59;;;13.56;62.80
54592;BME280;40488;48.558;18.150;2023-02-21T13:35:08;99392.44;;;13.49;63.10
54592;BME280;40488;48.558;18.150;2023-02-21T13:37:46;99395.13;;;13.42;63.55
54592;BME280;40488;48.558;18.150;2023-02-21T13:40:21;99391.75;;;13.40;63.40
54592;BME280;40488;48.558;18.150;2023-02-21T13:43:03;99388.38;;;13.38;63.87
54592;BME280;40488;48.558;18.150;2023-02-21T13:45:33;99390.09;;;13.36;63.77
54592;BME280;40488;48.558;18.150;2023-02-21T13:51:00;99399.56;;;13.33;63.73
54592;BME280;40488;48.558;18.150;2023-02-21T13:53:31;99390.34;;;13.21;63.79
54592;BME280;40488;48.558;18.150;2023-02-21T13:56:16;99397.31;;;13.13;64.12
54592;BME280;40488;48.558;18.150;2023-02-21T13:58:47;99410.22;;;13.07;64.50
54592;BME280;40488;48.558;18.150;2023-02-21T14:07:03;99406.09;;;12.94;64.54
54592;BME280;40488;48.558;18.150;2023-02-21T14:09:39;99411.28;;;12.91;64.74